createdAt,value
2022-08-22T00:00:56.228Z,25.35
2022-08-22T00:01:56.529Z,25.36
2022-08-22T00:03:04.982Z,25.94
2022-08-22T00:03:57.977Z,25.36
2022-08-22T00:04:57.289Z,25.36
2022-08-22T00:05:57.527Z,25.35
2022-08-22T00:06:57.767Z,25.36
2022-08-22T00:07:58.098Z,25.35
2022-08-22T00:08:58.298Z,25.35
2022-08-22T00:09:58.539Z,25.36
2022-08-22T00:10:58.789Z,25.36
2022-08-22T00:11:59.029Z,25.35
2022-08-22T00:12:59.260Z,25.35
2022-08-22T00:14:01.227Z,25.33
2022-08-22T00:14:59.809Z,25.33
2022-08-22T00:16:00.057Z,25.33
2022-08-22T00:17:00.291Z,25.35
2022-08-22T00:18:00.585Z,25.35
2022-08-22T00:19:01.789Z,25.35
2022-08-22T00:20:01.109Z,25.35
2022-08-22T00:21:01.350Z,25.32
2022-08-22T00:22:01.593Z,25.35
2022-08-22T00:23:01.831Z,25.33
2022-08-22T00:24:02.073Z,25.33
2022-08-22T00:25:02.304Z,25.35
2022-08-22T00:26:02.554Z,25.35
2022-08-22T00:27:02.794Z,25.32
2022-08-22T00:28:03.037Z,25.33
2022-08-22T00:29:03.274Z,25.32
2022-08-22T00:30:03.517Z,25.33
2022-08-22T00:31:03.756Z,25.33
2022-08-22T00:32:03.995Z,25.32
2022-08-22T00:33:05.220Z,25.33
2022-08-22T00:34:04.524Z,25.32
2022-08-22T00:35:04.766Z,25.32
2022-08-22T00:36:05.007Z,25.32
2022-08-22T00:37:05.249Z,25.30
2022-08-22T00:38:05.489Z,25.32
2022-08-22T00:39:05.728Z,25.32
2022-08-22T00:40:06.079Z,25.32
2022-08-22T00:41:06.259Z,25.32
2022-08-22T00:42:06.499Z,25.32
2022-08-22T00:43:06.740Z,25.30
2022-08-22T00:44:06.980Z,25.30
2022-08-22T00:45:07.220Z,25.30
2022-08-22T00:46:07.461Z,25.30
2022-08-22T00:47:07.721Z,25.28
2022-08-22T00:48:07.969Z,25.28
2022-08-22T00:49:08.202Z,25.30
2022-08-22T00:50:08.450Z,25.30
2022-08-22T00:51:08.692Z,25.30
2022-08-22T00:52:08.932Z,25.30
2022-08-22T00:53:09.180Z,25.28
2022-08-22T00:54:15.882Z,25.28
2022-08-22T00:55:10.665Z,25.28
2022-08-22T00:56:09.972Z,25.28
2022-08-22T00:57:10.204Z,25.28
2022-08-22T00:58:10.454Z,25.28
2022-08-22T00:59:23.867Z,25.27
2022-08-22T01:00:11.924Z,25.28
2022-08-22T01:01:11.258Z,25.27
2022-08-22T01:02:11.510Z,25.27
2022-08-22T01:03:11.746Z,25.28
2022-08-22T01:04:11.997Z,25.27
2022-08-22T01:05:12.237Z,25.28
2022-08-22T01:06:12.479Z,25.27
2022-08-22T01:07:12.726Z,25.27
2022-08-22T01:08:12.966Z,25.27
2022-08-22T01:09:13.198Z,25.25
2022-08-22T01:10:13.448Z,25.27
2022-08-22T01:11:13.689Z,25.27
2022-08-22T01:12:13.939Z,25.27
2022-08-22T01:13:14.180Z,25.25
2022-08-22T01:14:14.470Z,25.27
2022-08-22T01:15:14.710Z,25.25
2022-08-22T01:16:14.952Z,25.25
2022-08-22T01:17:15.192Z,25.24
2022-08-22T01:18:15.432Z,25.25
2022-08-22T01:19:15.672Z,25.25
2022-08-22T01:20:15.912Z,25.27
2022-08-22T01:21:16.152Z,25.25
2022-08-22T01:22:17.383Z,25.25
2022-08-22T01:23:16.684Z,25.25
2022-08-22T01:24:16.943Z,25.24
2022-08-22T01:25:17.251Z,25.25
2022-08-22T01:26:17.592Z,25.24
2022-08-22T01:27:17.865Z,25.25
2022-08-22T01:28:18.175Z,25.25
2022-08-22T01:29:18.417Z,25.24
2022-08-22T01:30:19.645Z,25.24
2022-08-22T01:31:18.897Z,25.24
2022-08-22T01:32:19.146Z,25.23
2022-08-22T01:33:19.407Z,25.24
2022-08-22T01:34:19.654Z,25.24
2022-08-22T01:35:19.895Z,25.24
2022-08-22T01:36:20.235Z,25.24
2022-08-22T01:37:20.478Z,25.24
2022-08-22T01:38:20.736Z,25.23
2022-08-22T01:39:20.978Z,25.23
2022-08-22T01:40:21.260Z,25.25
2022-08-22T01:41:21.529Z,25.24
2022-08-22T01:42:21.778Z,25.23
2022-08-22T01:43:22.020Z,25.21
2022-08-22T01:44:23.253Z,25.23
2022-08-22T01:45:22.550Z,25.23
2022-08-22T01:46:22.791Z,25.21
2022-08-22T01:47:23.042Z,25.23
2022-08-22T01:48:23.292Z,25.21
2022-08-22T01:49:23.565Z,25.21
2022-08-22T01:50:23.812Z,25.21
2022-08-22T01:51:24.074Z,25.23
2022-08-22T01:52:24.361Z,25.21
2022-08-22T01:53:24.593Z,25.21
2022-08-22T01:54:24.834Z,25.21
2022-08-22T01:55:25.074Z,25.21
2022-08-22T01:56:25.325Z,25.21
2022-08-22T01:57:25.602Z,25.23
2022-08-22T01:58:25.835Z,25.23
2022-08-22T01:59:33.974Z,25.21
2022-08-22T02:00:35.134Z,25.23
2022-08-22T02:01:27.649Z,25.21
2022-08-22T02:02:26.826Z,25.21
2022-08-22T02:03:27.075Z,25.21
2022-08-22T02:04:27.317Z,25.21
2022-08-22T02:05:27.596Z,25.20
2022-08-22T02:06:27.838Z,25.21
2022-08-22T02:07:31.991Z,25.21
2022-08-22T02:08:28.309Z,25.20
2022-08-22T02:09:28.550Z,25.21
2022-08-22T02:10:28.799Z,25.20
2022-08-22T02:11:29.039Z,25.21
2022-08-22T02:12:29.280Z,25.20
2022-08-22T02:13:29.520Z,25.20
2022-08-22T02:14:29.761Z,25.20
2022-08-22T02:15:30.001Z,25.20
2022-08-22T02:16:30.241Z,25.20
2022-08-22T02:17:30.489Z,25.20
2022-08-22T02:18:30.711Z,25.20
2022-08-22T02:19:30.972Z,25.20
2022-08-22T02:20:31.213Z,25.20
2022-08-22T02:21:31.463Z,25.20
2022-08-22T02:22:31.703Z,25.20
2022-08-22T02:23:31.953Z,25.18
2022-08-22T02:24:32.194Z,25.20
2022-08-22T02:25:32.434Z,25.18
2022-08-22T02:26:32.674Z,25.20
2022-08-22T02:27:32.915Z,25.20
2022-08-22T02:28:33.156Z,25.20
2022-08-22T02:29:33.396Z,25.20
2022-08-22T02:30:33.646Z,25.18
2022-08-22T02:31:33.897Z,25.18
2022-08-22T02:32:34.135Z,25.18
2022-08-22T02:33:34.478Z,25.18
2022-08-22T02:34:34.637Z,25.18
2022-08-22T02:35:34.877Z,25.20
2022-08-22T02:36:35.128Z,25.18
2022-08-22T02:37:35.383Z,25.18
2022-08-22T02:38:35.610Z,25.18
2022-08-22T02:39:35.849Z,25.18
2022-08-22T02:40:36.089Z,25.17
2022-08-22T02:41:36.330Z,25.18
2022-08-22T02:42:36.570Z,25.18
2022-08-22T02:43:36.904Z,25.18
2022-08-22T02:44:37.131Z,25.18
2022-08-22T02:45:37.380Z,25.18
2022-08-22T02:46:37.622Z,25.17
2022-08-22T02:47:37.862Z,25.18
2022-08-22T02:48:38.102Z,25.17
2022-08-22T02:49:43.978Z,25.18
2022-08-22T02:50:39.577Z,25.17
2022-08-22T02:51:38.884Z,25.17
2022-08-22T02:52:39.124Z,25.17
2022-08-22T02:53:39.374Z,25.18
2022-08-22T02:54:39.612Z,25.17
2022-08-22T02:55:39.852Z,25.17
2022-08-22T02:56:40.095Z,25.17
2022-08-22T02:57:40.339Z,25.18
2022-08-22T02:58:40.577Z,25.17
2022-08-22T02:59:40.826Z,25.17
2022-08-22T03:00:41.114Z,25.17
2022-08-22T03:01:41.336Z,25.17
2022-08-22T03:02:41.576Z,25.17
2022-08-22T03:03:41.825Z,25.17
2022-08-22T03:04:42.057Z,25.17
2022-08-22T03:05:42.306Z,25.17
2022-08-22T03:06:42.547Z,25.15
2022-08-22T03:07:42.788Z,25.17
2022-08-22T03:08:50.945Z,25.17
2022-08-22T03:09:44.250Z,25.15
2022-08-22T03:10:43.607Z,25.15
2022-08-22T03:11:43.861Z,25.17
2022-08-22T03:12:44.100Z,25.15
2022-08-22T03:13:44.341Z,25.15
2022-08-22T03:14:44.581Z,25.15
2022-08-22T03:15:49.327Z,25.17
2022-08-22T03:16:45.142Z,25.17
2022-08-22T03:17:45.381Z,25.15
2022-08-22T03:18:45.633Z,25.15
2022-08-22T03:19:45.911Z,25.15
2022-08-22T03:20:46.149Z,25.15
2022-08-22T03:21:46.411Z,25.15
2022-08-22T03:22:46.633Z,25.15
2022-08-22T03:23:46.884Z,25.17
2022-08-22T03:24:47.125Z,25.15
2022-08-22T03:25:47.365Z,25.14
2022-08-22T03:26:47.615Z,25.14
2022-08-22T03:27:50.001Z,25.14
2022-08-22T03:28:59.349Z,25.15
2022-08-22T03:29:49.406Z,25.15
2022-08-22T03:30:48.718Z,25.15
2022-08-22T03:31:48.957Z,25.15
2022-08-22T03:32:49.208Z,25.14
2022-08-22T03:33:49.443Z,25.15
2022-08-22T03:34:49.678Z,25.15
2022-08-22T03:35:49.925Z,25.14
2022-08-22T03:36:50.168Z,25.14
2022-08-22T03:37:50.408Z,25.14
2022-08-22T03:38:50.650Z,25.14
2022-08-22T03:39:50.939Z,25.14
2022-08-22T03:40:51.179Z,25.14
2022-08-22T03:41:51.430Z,25.15
2022-08-22T03:42:51.668Z,25.13
2022-08-22T03:43:51.908Z,25.14
2022-08-22T03:44:52.151Z,25.15
2022-08-22T03:45:52.391Z,25.14
2022-08-22T03:46:52.633Z,25.14
2022-08-22T03:47:52.920Z,25.14
2022-08-22T03:48:53.182Z,25.15
2022-08-22T03:49:55.645Z,25.15
2022-08-22T03:50:54.713Z,25.14
2022-08-22T03:51:53.891Z,25.15
2022-08-22T03:52:54.133Z,25.13
2022-08-22T03:53:54.406Z,25.14
2022-08-22T03:54:54.685Z,25.14
2022-08-22T03:55:54.925Z,25.14
2022-08-22T03:56:58.933Z,25.13
2022-08-22T03:57:56.409Z,25.14
2022-08-22T03:58:55.706Z,25.13
2022-08-22T03:59:55.946Z,25.13
2022-08-22T04:00:56.735Z,25.13
2022-08-22T04:01:56.606Z,25.15
2022-08-22T04:02:56.847Z,25.14
2022-08-22T04:03:57.087Z,25.14
2022-08-22T04:04:57.337Z,25.13
2022-08-22T04:05:57.576Z,25.14
2022-08-22T04:06:57.818Z,25.14
2022-08-22T04:07:58.169Z,25.14
2022-08-22T04:08:58.358Z,25.14
2022-08-22T04:09:58.620Z,25.13
2022-08-22T04:10:58.860Z,25.14
2022-08-22T04:11:59.118Z,25.14
2022-08-22T04:12:59.351Z,25.14
2022-08-22T04:13:59.601Z,25.13
2022-08-22T04:14:59.841Z,25.13
2022-08-22T04:16:00.089Z,25.13
2022-08-22T04:17:00.328Z,25.13
2022-08-22T04:18:00.575Z,25.10
2022-08-22T04:19:00.812Z,25.13
2022-08-22T04:20:01.051Z,25.10
2022-08-22T04:21:01.310Z,25.13
2022-08-22T04:22:01.554Z,25.10
2022-08-22T04:23:01.796Z,25.13
2022-08-22T04:24:02.036Z,25.10
2022-08-22T04:25:07.162Z,25.09
2022-08-22T04:26:12.308Z,25.13
2022-08-22T04:27:03.784Z,25.13
2022-08-22T04:28:03.085Z,25.13
2022-08-22T04:29:03.324Z,25.10
2022-08-22T04:30:03.564Z,25.13
2022-08-22T04:31:03.805Z,25.10
2022-08-22T04:32:04.053Z,25.10
2022-08-22T04:33:04.287Z,25.09
2022-08-22T04:34:04.538Z,25.10
2022-08-22T04:35:04.788Z,25.13
2022-08-22T04:36:05.036Z,25.10
2022-08-22T04:37:05.269Z,25.10
2022-08-22T04:38:05.509Z,25.10
2022-08-22T04:39:05.750Z,25.13
2022-08-22T04:40:06.057Z,25.10
2022-08-22T04:41:06.299Z,25.10
2022-08-22T04:42:30.776Z,25.10
2022-08-22T04:43:07.770Z,25.10
2022-08-22T04:44:07.071Z,25.09
2022-08-22T04:45:07.312Z,25.10
2022-08-22T04:46:07.552Z,25.10
2022-08-22T04:47:07.792Z,25.09
2022-08-22T04:48:08.034Z,25.09
2022-08-22T04:49:08.272Z,25.09
2022-08-22T04:50:08.513Z,25.13
2022-08-22T04:51:08.834Z,25.09
2022-08-22T04:52:09.082Z,25.13
2022-08-22T04:53:09.314Z,25.10
2022-08-22T04:54:09.563Z,25.09
2022-08-22T04:55:09.795Z,25.09
2022-08-22T04:56:10.035Z,25.09
2022-08-22T04:57:10.283Z,25.10
2022-08-22T04:58:10.526Z,25.08
2022-08-22T04:59:10.756Z,25.09
2022-08-22T05:00:11.005Z,25.09
2022-08-22T05:01:11.239Z,25.09
2022-08-22T05:02:11.514Z,25.08
2022-08-22T05:03:11.727Z,25.09
2022-08-22T05:04:11.968Z,25.09
2022-08-22T05:05:13.359Z,25.10
2022-08-22T05:06:12.447Z,25.09
2022-08-22T05:07:12.687Z,25.09
2022-08-22T05:08:12.927Z,25.09
2022-08-22T05:09:16.258Z,25.09
2022-08-22T05:10:13.520Z,25.09
2022-08-22T05:11:13.761Z,25.09
2022-08-22T05:12:14.001Z,25.09
2022-08-22T05:13:14.241Z,25.10
2022-08-22T05:14:14.484Z,25.08
2022-08-22T05:15:14.730Z,25.09
2022-08-22T05:16:15.013Z,25.08
2022-08-22T05:17:15.617Z,25.08
2022-08-22T05:18:15.524Z,25.08
2022-08-22T05:19:16.849Z,25.08
2022-08-22T05:20:16.003Z,25.09
2022-08-22T05:21:16.244Z,25.08
2022-08-22T05:22:16.497Z,25.06
2022-08-22T05:23:17.557Z,25.06
2022-08-22T05:24:16.995Z,25.06
2022-08-22T05:25:17.235Z,25.06
2022-08-22T05:26:17.488Z,25.06
2022-08-22T05:27:17.826Z,25.05
2022-08-22T05:28:18.077Z,25.03
2022-08-22T05:29:18.327Z,25.03
2022-08-22T05:30:18.586Z,25.03
2022-08-22T05:31:18.837Z,25.02
2022-08-22T05:32:20.080Z,25.02
2022-08-22T05:33:19.398Z,25.02
2022-08-22T05:34:19.720Z,25.00
2022-08-22T05:35:19.968Z,25.02
2022-08-22T05:36:20.237Z,25.00
2022-08-22T05:37:20.491Z,24.99
2022-08-22T05:38:20.820Z,25.00
2022-08-22T05:39:21.103Z,24.98
2022-08-22T05:40:21.405Z,24.98
2022-08-22T05:41:21.651Z,24.98
2022-08-22T05:42:21.941Z,24.96
2022-08-22T05:43:22.201Z,24.96
2022-08-22T05:44:22.451Z,24.95
2022-08-22T05:45:22.702Z,24.96
2022-08-22T05:46:26.869Z,24.95
2022-08-22T05:47:23.273Z,24.93
2022-08-22T05:48:23.540Z,24.95
2022-08-22T05:49:23.793Z,24.93
2022-08-22T05:50:24.055Z,24.93
2022-08-22T05:51:24.324Z,24.95
2022-08-22T05:52:24.859Z,24.93
2022-08-22T05:53:24.854Z,24.95
2022-08-22T05:54:34.310Z,24.93
2022-08-22T05:55:26.376Z,24.93
2022-08-22T05:56:25.695Z,24.93
2022-08-22T05:57:25.956Z,24.95
2022-08-22T05:58:26.216Z,24.95
2022-08-22T05:59:26.473Z,24.93
2022-08-22T06:00:26.727Z,24.95
2022-08-22T06:01:27.059Z,24.95
2022-08-22T06:02:27.327Z,24.93
2022-08-22T06:03:27.588Z,24.96
2022-08-22T06:04:27.849Z,24.95
2022-08-22T06:05:28.099Z,24.95
2022-08-22T06:06:28.377Z,24.95
2022-08-22T06:07:28.629Z,24.96
2022-08-22T06:08:28.890Z,24.96
2022-08-22T06:09:35.519Z,24.96
2022-08-22T06:10:30.400Z,24.96
2022-08-22T06:11:33.713Z,24.96
2022-08-22T06:12:29.963Z,24.98
2022-08-22T06:13:30.282Z,24.98
2022-08-22T06:14:30.543Z,24.98
2022-08-22T06:15:30.902Z,24.96
2022-08-22T06:16:31.212Z,24.98
2022-08-22T06:17:31.470Z,24.98
2022-08-22T06:18:31.725Z,24.98
2022-08-22T06:19:31.982Z,24.98
2022-08-22T06:20:32.234Z,24.99
2022-08-22T06:21:35.417Z,24.99
2022-08-22T06:22:33.737Z,24.96
2022-08-22T06:23:32.997Z,24.98
2022-08-22T06:24:33.256Z,24.96
2022-08-22T06:25:33.515Z,24.98
2022-08-22T06:26:33.790Z,24.96
2022-08-22T06:27:34.045Z,24.96
2022-08-22T06:28:34.297Z,24.98
2022-08-22T06:29:34.557Z,24.98
2022-08-22T06:30:34.814Z,24.96
2022-08-22T06:31:35.078Z,24.99
2022-08-22T06:32:58.388Z,24.99
2022-08-22T06:33:36.599Z,24.98
2022-08-22T06:34:35.918Z,24.98
2022-08-22T06:35:36.189Z,24.98
2022-08-22T06:36:36.439Z,24.99
2022-08-22T06:37:36.699Z,24.99
2022-08-22T06:38:36.977Z,25.00
2022-08-22T06:39:37.375Z,25.00
2022-08-22T06:40:37.630Z,24.99
2022-08-22T06:41:37.890Z,25.00
2022-08-22T06:42:38.148Z,25.00
2022-08-22T06:43:38.413Z,25.00
2022-08-22T06:44:38.684Z,25.00
2022-08-22T06:45:38.960Z,25.00
2022-08-22T06:46:39.236Z,25.00
2022-08-22T06:47:39.514Z,25.02
2022-08-22T06:48:39.764Z,25.03
2022-08-22T06:49:40.044Z,25.05
2022-08-22T06:50:40.314Z,25.05
2022-08-22T06:51:40.576Z,25.08
2022-08-22T06:52:40.854Z,25.08
2022-08-22T06:53:47.879Z,25.10
2022-08-22T06:54:42.364Z,25.09
2022-08-22T06:55:41.687Z,25.08
2022-08-22T06:56:41.935Z,25.03
2022-08-22T06:57:42.196Z,24.98
2022-08-22T06:58:42.477Z,24.90
2022-08-22T06:59:42.747Z,24.85
2022-08-22T07:00:46.596Z,24.81
2022-08-22T07:01:44.328Z,24.77
2022-08-22T07:02:43.528Z,24.73
2022-08-22T07:03:43.809Z,24.69
2022-08-22T07:04:44.068Z,24.65
2022-08-22T07:05:44.327Z,24.64
2022-08-22T07:06:44.591Z,24.62
2022-08-22T07:07:44.866Z,24.61
2022-08-22T07:08:45.121Z,24.61
2022-08-22T07:09:45.400Z,24.61
2022-08-22T07:10:45.661Z,24.61
2022-08-22T07:11:45.952Z,24.61
2022-08-22T07:12:46.231Z,24.60
2022-08-22T07:13:46.632Z,24.64
2022-08-22T07:14:46.731Z,24.62
2022-08-22T07:15:47.002Z,24.67
2022-08-22T07:16:47.285Z,24.68
2022-08-22T07:17:47.543Z,24.73
2022-08-22T07:18:47.834Z,24.80
2022-08-22T07:19:49.074Z,24.83
2022-08-22T07:20:48.415Z,24.87
2022-08-22T07:21:48.715Z,24.90
2022-08-22T07:22:49.027Z,24.96
2022-08-22T07:23:49.397Z,24.99
2022-08-22T07:24:49.659Z,25.00
2022-08-22T07:25:49.945Z,25.03
2022-08-22T07:26:50.228Z,25.03
2022-08-22T07:27:50.517Z,25.06
2022-08-22T07:28:57.717Z,25.06
2022-08-22T07:29:52.037Z,25.09
2022-08-22T07:30:51.368Z,25.09
2022-08-22T07:31:51.657Z,25.10
2022-08-22T07:32:51.918Z,25.13
2022-08-22T07:33:52.189Z,25.14
2022-08-22T07:34:52.449Z,25.13
2022-08-22T07:35:53.488Z,25.14
2022-08-22T07:36:52.961Z,25.15
2022-08-22T07:37:53.243Z,25.17
2022-08-22T07:38:53.534Z,25.17
2022-08-22T07:39:53.968Z,25.17
2022-08-22T07:40:54.093Z,25.15
2022-08-22T07:41:54.372Z,25.17
2022-08-22T07:42:54.662Z,25.17
2022-08-22T07:43:54.921Z,25.18
2022-08-22T07:44:55.182Z,25.20
2022-08-22T07:45:55.453Z,25.20
2022-08-22T07:46:55.713Z,25.20
2022-08-22T07:47:55.982Z,25.21
2022-08-22T07:49:08.612Z,25.24
2022-08-22T07:49:57.507Z,25.24
2022-08-22T07:50:56.815Z,25.25
2022-08-22T07:51:57.135Z,25.25
2022-08-22T07:52:57.396Z,25.27
2022-08-22T07:54:00.701Z,25.25
2022-08-22T07:54:57.974Z,25.25
2022-08-22T07:55:58.257Z,25.28
2022-08-22T07:56:58.519Z,25.25
2022-08-22T07:57:58.914Z,25.27
2022-08-22T07:58:59.027Z,25.28
2022-08-22T07:59:59.337Z,25.27
2022-08-22T08:00:59.622Z,25.28
2022-08-22T08:01:59.870Z,25.28
2022-08-22T08:03:00.150Z,25.30
2022-08-22T08:04:00.419Z,25.32
2022-08-22T08:05:00.699Z,25.32
2022-08-22T08:06:00.980Z,25.33
2022-08-22T08:07:01.259Z,25.33
2022-08-22T08:08:01.530Z,25.35
2022-08-22T08:09:01.812Z,25.35
2022-08-22T08:10:02.081Z,25.35
2022-08-22T08:11:02.371Z,25.33
2022-08-22T08:12:02.651Z,25.33
2022-08-22T08:13:03.093Z,25.30
2022-08-22T08:14:03.212Z,25.28
2022-08-22T08:15:03.491Z,25.27
2022-08-22T08:16:03.773Z,25.25
2022-08-22T08:17:04.053Z,25.25
2022-08-22T08:18:04.344Z,25.25
2022-08-22T08:19:04.621Z,25.27
2022-08-22T08:20:04.925Z,25.28
2022-08-22T08:21:05.203Z,25.27
2022-08-22T08:22:05.475Z,25.28
2022-08-22T08:23:05.753Z,25.30
2022-08-22T08:24:06.036Z,25.30
2022-08-22T08:25:06.346Z,25.32
2022-08-22T08:26:06.636Z,25.36
2022-08-22T08:27:06.905Z,25.38
2022-08-22T08:28:07.195Z,25.40
2022-08-22T08:29:07.447Z,25.45
2022-08-22T08:30:10.091Z,25.46
2022-08-22T08:31:09.038Z,25.51
2022-08-22T08:32:08.259Z,25.54
2022-08-22T08:33:25.965Z,25.55
2022-08-22T08:34:09.819Z,25.58
2022-08-22T08:35:09.048Z,25.61
2022-08-22T08:36:09.330Z,25.64
2022-08-22T08:37:09.631Z,25.65
2022-08-22T08:38:09.911Z,25.65
2022-08-22T08:39:10.213Z,25.69
2022-08-22T08:40:10.548Z,25.70
2022-08-22T08:41:10.822Z,25.73
2022-08-22T08:42:11.141Z,25.73
2022-08-22T08:43:11.464Z,25.77
2022-08-22T08:44:11.661Z,25.79
2022-08-22T08:45:11.943Z,25.80
2022-08-22T08:46:12.223Z,25.83
2022-08-22T08:47:12.513Z,25.80
2022-08-22T08:48:12.785Z,25.82
2022-08-22T08:49:13.063Z,25.82
2022-08-22T08:50:13.334Z,25.82
2022-08-22T08:51:13.606Z,25.83
2022-08-22T08:52:13.905Z,25.83
2022-08-22T08:53:14.223Z,25.83
2022-08-22T08:54:14.465Z,25.85
2022-08-22T08:55:19.829Z,25.85
2022-08-22T08:56:19.638Z,25.85
2022-08-22T08:57:15.317Z,25.80
2022-08-22T08:58:15.595Z,25.77
2022-08-22T08:59:15.876Z,25.76
2022-08-22T09:00:16.158Z,25.75
2022-08-22T09:01:16.485Z,25.75
2022-08-22T09:02:20.578Z,25.72
2022-08-22T09:03:24.012Z,25.73
2022-08-22T09:04:18.250Z,25.72
2022-08-22T09:05:19.599Z,25.70
2022-08-22T09:06:17.831Z,25.69
2022-08-22T09:07:18.070Z,25.67
2022-08-22T09:08:18.502Z,25.67
2022-08-22T09:09:18.622Z,25.69
2022-08-22T09:10:19.040Z,25.69
2022-08-22T09:11:19.231Z,25.72
2022-08-22T09:12:20.482Z,25.72
2022-08-22T09:13:19.812Z,25.76
2022-08-22T09:14:20.082Z,25.79
2022-08-22T09:15:20.363Z,25.82
2022-08-22T09:16:20.685Z,25.85
2022-08-22T09:17:21.108Z,25.88
2022-08-22T09:18:21.271Z,25.94
2022-08-22T09:19:21.573Z,25.97
2022-08-22T09:20:21.910Z,25.99
2022-08-22T09:21:31.359Z,26.01
2022-08-22T09:22:23.435Z,26.06
2022-08-22T09:23:22.772Z,26.07
2022-08-22T09:24:23.191Z,26.10
2022-08-22T09:25:23.549Z,26.15
2022-08-22T09:26:23.634Z,26.17
2022-08-22T09:27:24.475Z,26.17
2022-08-22T09:28:24.186Z,26.18
2022-08-22T09:29:24.497Z,26.18
2022-08-22T09:30:28.793Z,26.20
2022-08-22T09:31:44.971Z,26.20
2022-08-22T09:32:26.329Z,26.18
2022-08-22T09:33:28.174Z,26.18
2022-08-22T09:34:25.928Z,26.15
2022-08-22T09:35:26.259Z,26.15
2022-08-22T09:36:26.529Z,26.15
2022-08-22T09:37:26.809Z,26.17
2022-08-22T09:38:27.080Z,26.18
2022-08-22T09:39:27.358Z,26.18
2022-08-22T09:41:27.991Z,26.23
2022-08-22T09:42:28.232Z,26.25
2022-08-22T09:43:28.521Z,26.25
2022-08-22T09:44:29.781Z,26.26
2022-08-22T09:45:29.102Z,26.25
2022-08-22T09:46:31.557Z,26.28
2022-08-22T09:47:32.645Z,26.28
2022-08-22T09:48:29.931Z,26.29
2022-08-22T09:49:30.203Z,26.30
2022-08-22T09:50:30.481Z,26.30
2022-08-22T09:51:32.686Z,26.33
2022-08-22T09:52:33.897Z,26.33
2022-08-22T09:53:31.312Z,26.37
2022-08-22T09:54:32.945Z,26.37
2022-08-22T09:55:35.598Z,26.40
2022-08-22T09:56:32.125Z,26.43
2022-08-22T09:57:32.456Z,26.44
2022-08-22T09:58:32.757Z,26.44
2022-08-22T09:59:33.663Z,26.44
2022-08-22T10:00:33.336Z,26.43
2022-08-22T10:01:33.668Z,26.44
2022-08-22T10:02:33.907Z,26.44
2022-08-22T10:03:34.178Z,26.45
2022-08-22T10:04:34.499Z,26.44
2022-08-22T10:05:40.289Z,26.45
2022-08-22T10:06:35.959Z,26.45
2022-08-22T10:07:35.280Z,26.45
2022-08-22T10:08:35.570Z,26.44
2022-08-22T10:09:35.890Z,26.44
2022-08-22T10:10:36.112Z,26.44
2022-08-22T10:11:38.697Z,26.44
2022-08-22T10:12:36.617Z,26.43
2022-08-22T10:13:36.995Z,26.40
2022-08-22T10:14:37.251Z,26.40
2022-08-22T10:15:37.534Z,26.39
2022-08-22T10:16:37.792Z,26.39
2022-08-22T10:17:40.848Z,26.39
2022-08-22T10:18:43.958Z,26.40
2022-08-22T10:19:39.723Z,26.40
2022-08-22T10:20:39.023Z,26.43
2022-08-22T10:21:40.272Z,26.43
2022-08-22T10:22:39.606Z,26.43
2022-08-22T10:23:39.894Z,26.45
2022-08-22T10:24:43.787Z,26.44
2022-08-22T10:25:42.139Z,26.44
2022-08-22T10:26:40.724Z,26.44
2022-08-22T10:27:40.985Z,26.44
2022-08-22T10:28:41.276Z,26.43
2022-08-22T10:29:41.546Z,26.43
2022-08-22T10:30:41.827Z,26.44
2022-08-22T10:31:45.088Z,26.45
2022-08-22T10:32:43.346Z,26.45
2022-08-22T10:33:42.678Z,26.47
2022-08-22T10:34:43.008Z,26.47
2022-08-22T10:35:43.297Z,26.45
2022-08-22T10:36:43.579Z,26.47
2022-08-22T10:37:45.938Z,26.48
2022-08-22T10:38:46.621Z,26.48
2022-08-22T10:39:44.486Z,26.47
2022-08-22T10:40:44.680Z,26.47
2022-08-22T10:41:45.501Z,26.47
2022-08-22T10:42:45.271Z,26.47
2022-08-22T10:43:45.610Z,26.45
2022-08-22T10:44:45.891Z,26.44
2022-08-22T10:45:46.222Z,26.40
2022-08-22T10:46:46.552Z,26.37
2022-08-22T10:47:46.732Z,26.35
2022-08-22T10:48:47.011Z,26.33
2022-08-22T10:49:47.293Z,26.32
2022-08-22T10:50:47.531Z,26.32
2022-08-22T10:51:47.823Z,26.32
2022-08-22T10:52:48.095Z,26.30
2022-08-22T10:53:48.376Z,26.30
2022-08-22T10:54:48.625Z,26.30
2022-08-22T10:55:48.934Z,26.30
2022-08-22T10:56:49.195Z,26.30
2022-08-22T10:57:52.660Z,26.30
2022-08-22T10:58:49.743Z,26.29
2022-08-22T10:59:49.976Z,26.30
2022-08-22T11:00:50.720Z,26.30
2022-08-22T11:01:50.608Z,26.29
2022-08-22T11:02:53.088Z,26.29
2022-08-22T11:03:51.148Z,26.29
2022-08-22T11:04:51.438Z,26.29
2022-08-22T11:05:51.698Z,26.30
2022-08-22T11:06:51.981Z,26.32
2022-08-22T11:07:52.228Z,26.32
2022-08-22T11:08:52.460Z,26.33
2022-08-22T11:09:52.744Z,26.33
2022-08-22T11:10:53.050Z,26.35
2022-08-22T11:11:53.329Z,26.35
2022-08-22T11:12:53.588Z,26.35
2022-08-22T11:13:53.871Z,26.33
2022-08-22T11:14:54.156Z,26.32
2022-08-22T11:15:54.429Z,26.30
2022-08-22T11:16:55.325Z,26.28
2022-08-22T11:17:54.922Z,26.28
2022-08-22T11:18:58.042Z,26.26
2022-08-22T11:19:56.423Z,26.26
2022-08-22T11:20:55.654Z,26.25
2022-08-22T11:21:55.913Z,26.23
2022-08-22T11:22:56.286Z,26.21
2022-08-22T11:23:56.572Z,26.20
2022-08-22T11:24:58.657Z,26.20
2022-08-22T11:25:57.046Z,26.20
2022-08-22T11:26:57.376Z,26.20
2022-08-22T11:27:57.635Z,26.21
2022-08-22T11:28:57.926Z,26.21
2022-08-22T11:29:59.168Z,26.23
2022-08-22T11:30:58.507Z,26.25
2022-08-22T11:32:05.692Z,26.23
2022-08-22T11:33:00.362Z,26.23
2022-08-22T11:33:59.247Z,26.18
2022-08-22T11:34:59.518Z,26.18
2022-08-22T11:35:59.826Z,26.18
2022-08-22T11:37:00.173Z,26.15
2022-08-22T11:38:00.436Z,26.13
2022-08-22T11:39:01.174Z,26.12
2022-08-22T11:40:00.973Z,26.10
2022-08-22T11:41:01.238Z,26.09
2022-08-22T11:42:01.490Z,26.07
2022-08-22T11:43:03.218Z,26.06
2022-08-22T11:44:03.520Z,26.05
2022-08-22T11:45:02.273Z,26.02
2022-08-22T11:46:02.530Z,26.02
2022-08-22T11:47:02.832Z,26.02
2022-08-22T11:48:03.092Z,26.01
2022-08-22T11:49:03.429Z,26.02
2022-08-22T11:50:03.633Z,26.02
2022-08-22T11:51:13.275Z,26.01
2022-08-22T11:52:05.154Z,26.02
2022-08-22T11:53:05.670Z,26.01
2022-08-22T11:54:04.822Z,26.02
2022-08-22T11:55:05.075Z,26.01
2022-08-22T11:56:05.767Z,25.99
2022-08-22T11:57:05.700Z,26.01
2022-08-22T11:58:05.955Z,26.01
2022-08-22T11:59:06.216Z,26.02
2022-08-22T12:00:06.516Z,26.05
2022-08-22T12:01:08.137Z,26.06
2022-08-22T12:02:08.754Z,26.07
2022-08-22T12:03:07.288Z,26.06
2022-08-22T12:04:09.696Z,26.06
2022-08-22T12:05:07.948Z,26.06
2022-08-22T12:06:08.209Z,26.07
2022-08-22T12:07:08.469Z,26.07
2022-08-22T12:08:08.728Z,26.09
2022-08-22T12:09:08.989Z,26.07
2022-08-22T12:10:13.811Z,26.07
2022-08-22T12:11:10.511Z,26.05
2022-08-22T12:12:09.820Z,26.02
2022-08-22T12:13:10.089Z,26.05
2022-08-22T12:14:10.352Z,26.05
2022-08-22T12:15:10.698Z,26.02
2022-08-22T12:16:10.982Z,26.02
2022-08-22T12:17:11.262Z,26.02
2022-08-22T12:18:15.309Z,26.05
2022-08-22T12:19:12.783Z,26.06
2022-08-22T12:20:16.317Z,26.05
2022-08-22T12:21:12.277Z,26.07
2022-08-22T12:22:12.554Z,26.09
2022-08-22T12:23:12.823Z,26.09
2022-08-22T12:24:20.737Z,26.10
2022-08-22T12:25:14.366Z,26.10
2022-08-22T12:26:13.678Z,26.12
2022-08-22T12:27:13.935Z,26.10
2022-08-22T12:28:14.176Z,26.12
2022-08-22T12:29:15.667Z,26.12
2022-08-22T12:30:14.757Z,26.10
2022-08-22T12:31:15.017Z,26.09
2022-08-22T12:32:15.337Z,26.09
2022-08-22T12:33:22.877Z,26.07
2022-08-22T12:34:16.878Z,26.09
2022-08-22T12:35:16.198Z,26.09
2022-08-22T12:36:18.262Z,26.09
2022-08-22T12:37:16.697Z,26.09
2022-08-22T12:38:29.201Z,26.10
2022-08-22T12:39:18.166Z,26.10
2022-08-22T12:40:17.494Z,26.12
2022-08-22T12:41:28.167Z,26.13
2022-08-22T12:42:18.978Z,26.15
2022-08-22T12:43:18.877Z,26.15
2022-08-22T12:44:18.611Z,26.17
2022-08-22T12:45:18.901Z,26.15
2022-08-22T12:46:19.202Z,26.18
2022-08-22T12:47:19.463Z,26.18
2022-08-22T12:48:19.714Z,26.20
2022-08-22T12:49:19.973Z,26.20
2022-08-22T12:50:20.236Z,26.20
2022-08-22T12:51:20.497Z,26.20
2022-08-22T12:52:20.754Z,26.20
2022-08-22T12:53:21.068Z,26.20
2022-08-22T12:54:21.345Z,26.20
2022-08-22T12:55:21.606Z,26.21
2022-08-22T12:56:21.916Z,26.23
2022-08-22T12:57:23.739Z,26.23